createdAt,value
2022-10-11T00:01:17.632Z,17.17
2022-10-11T00:03:44.060Z,13.33
2022-10-11T00:06:10.543Z,10.82
2022-10-11T00:08:36.963Z,23.77
2022-10-11T00:11:06.478Z,13.77
2022-10-11T00:13:33.152Z,17.00
2022-10-11T00:15:59.561Z,13.85
2022-10-11T00:18:26.403Z,12.63
2022-10-11T00:21:01.702Z,18.40
2022-10-11T00:23:28.098Z,13.55
2022-10-11T00:26:02.365Z,14.20
2022-10-11T00:28:29.443Z,10.13
2022-10-11T00:30:55.850Z,14.80
2022-10-11T00:33:22.628Z,14.20
2022-10-11T00:35:49.149Z,14.00
2022-10-11T00:38:15.740Z,13.50
2022-10-11T00:40:42.113Z,19.53
2022-10-11T00:43:21.915Z,12.10
2022-10-11T00:45:57.297Z,13.47
2022-10-11T00:48:45.959Z,12.18
2022-10-11T00:51:18.056Z,13.03
2022-10-11T00:53:47.021Z,14.40
2022-10-11T00:56:20.453Z,16.17
2022-10-11T00:58:47.310Z,13.20
2022-10-11T01:01:13.794Z,17.20
2022-10-11T01:03:40.806Z,15.97
2022-10-11T01:06:08.056Z,13.63
2022-10-11T01:08:34.831Z,14.80
2022-10-11T01:11:01.612Z,14.70
2022-10-11T01:13:51.179Z,24.17
2022-10-11T01:16:39.503Z,14.57
2022-10-11T01:19:37.796Z,23.83
2022-10-11T01:22:36.032Z,10.93
2022-10-11T01:25:43.463Z,27.57
2022-10-11T01:28:27.609Z,28.07
2022-10-11T01:31:04.440Z,17.93
2022-10-11T01:33:43.608Z,19.03
2022-10-11T01:36:57.974Z,15.23
2022-10-11T01:39:31.523Z,20.27
2022-10-11T01:42:02.168Z,14.87
2022-10-11T01:44:30.177Z,18.80
2022-10-11T01:46:56.476Z,20.33
2022-10-11T01:49:22.887Z,21.20
2022-10-11T01:51:53.899Z,20.93
2022-10-11T01:55:09.310Z,24.80
2022-10-11T01:57:52.113Z,19.40
2022-10-11T02:00:21.886Z,15.23
2022-10-11T02:03:20.396Z,13.00
2022-10-11T02:06:01.154Z,22.10
2022-10-11T02:08:36.946Z,13.17
2022-10-11T02:11:24.402Z,20.77
2022-10-11T02:13:57.339Z,21.27
2022-10-11T02:16:36.296Z,27.10
2022-10-11T02:19:06.458Z,26.77
2022-10-11T02:21:36.193Z,24.57
2022-10-11T02:24:11.940Z,18.20
2022-10-11T02:26:42.911Z,21.93
2022-10-11T02:29:13.401Z,25.57
2022-10-11T02:31:41.927Z,15.87
2022-10-11T02:34:17.229Z,35.87
2022-10-11T02:36:59.337Z,20.97
2022-10-11T02:39:58.048Z,23.33
2022-10-11T02:42:33.876Z,28.17
2022-10-11T02:45:06.834Z,23.27
2022-10-11T02:47:33.843Z,24.03
2022-10-11T02:50:00.559Z,10.43
2022-10-11T02:52:26.940Z,19.07
2022-10-11T02:54:53.292Z,27.00
2022-10-11T02:57:19.767Z,25.07
2022-10-11T02:59:46.164Z,28.77
2022-10-11T03:02:12.542Z,36.50
2022-10-11T03:04:38.918Z,26.10
2022-10-11T03:07:05.326Z,23.03
2022-10-11T03:09:31.729Z,22.17
2022-10-11T03:11:58.070Z,20.60
2022-10-11T03:14:24.704Z,20.83
2022-10-11T03:16:51.659Z,22.63
2022-10-11T03:19:19.406Z,20.30
2022-10-11T03:21:46.170Z,24.50
2022-10-11T03:24:12.529Z,13.87
2022-10-11T03:26:38.907Z,21.33
2022-10-11T03:29:05.317Z,18.73
2022-10-11T03:31:31.623Z,20.73
2022-10-11T03:33:58.056Z,31.53
2022-10-11T03:36:24.392Z,28.27
2022-10-11T03:38:50.807Z,24.50
2022-10-11T03:41:17.157Z,38.63
2022-10-11T03:43:44.455Z,36.27
2022-10-11T03:46:10.933Z,26.80
2022-10-11T03:48:37.371Z,17.47
2022-10-11T03:51:03.740Z,29.43
2022-10-11T03:53:30.133Z,23.80
2022-10-11T03:55:56.531Z,28.83
2022-10-11T03:58:23.744Z,23.97
2022-10-11T04:00:51.756Z,22.40
2022-10-11T04:03:18.175Z,20.07
2022-10-11T04:05:45.054Z,25.17
2022-10-11T04:08:12.436Z,35.17
2022-10-11T04:10:40.073Z,39.47
2022-10-11T04:13:07.366Z,37.10
2022-10-11T04:15:33.780Z,23.63
2022-10-11T04:18:00.211Z,21.63
2022-10-11T04:20:26.530Z,24.73
2022-10-11T04:22:53.065Z,28.43
2022-10-11T04:25:19.564Z,23.50
2022-10-11T04:27:45.911Z,23.00
2022-10-11T04:30:12.803Z,34.13
2022-10-11T04:32:39.103Z,19.43
2022-10-11T04:35:05.921Z,24.17
2022-10-11T04:37:33.065Z,33.00
2022-10-11T04:39:59.576Z,26.30
2022-10-11T04:42:25.993Z,24.63
2022-10-11T04:44:52.316Z,31.00
2022-10-11T04:47:18.822Z,20.30
2022-10-11T04:49:45.286Z,24.93
2022-10-11T04:52:11.610Z,29.23
2022-10-11T04:54:38.008Z,31.60
2022-10-11T04:57:04.520Z,32.33
2022-10-11T04:59:30.979Z,25.87
2022-10-11T05:01:57.420Z,37.03
2022-10-11T05:04:23.846Z,24.00
2022-10-11T05:06:50.231Z,24.43
2022-10-11T05:09:16.606Z,25.17
2022-10-11T05:11:43.029Z,31.63
2022-10-11T05:14:09.354Z,27.10
2022-10-11T05:16:35.753Z,16.63
2022-10-11T05:19:02.093Z,32.13
2022-10-11T05:21:29.584Z,27.67
2022-10-11T05:23:57.186Z,21.70
2022-10-11T05:26:26.165Z,34.10
2022-10-11T05:28:52.817Z,29.40
2022-10-11T05:31:19.821Z,17.90
2022-10-11T05:33:46.218Z,19.90
2022-10-11T05:36:13.124Z,22.93
2022-10-11T05:38:39.593Z,26.47
2022-10-11T05:41:06.983Z,30.93
2022-10-11T05:43:33.326Z,32.20
2022-10-11T05:46:00.153Z,25.57
2022-10-11T05:48:26.875Z,30.20
2022-10-11T05:50:58.153Z,35.10
2022-10-11T05:53:24.515Z,31.53
2022-10-11T05:55:50.816Z,32.77
2022-10-11T05:58:18.525Z,25.97
2022-10-11T06:00:44.866Z,27.87
2022-10-11T06:03:12.920Z,27.73
2022-10-11T06:05:39.617Z,21.00
2022-10-11T06:08:07.196Z,18.43
2022-10-11T06:10:33.645Z,25.30
2022-10-11T06:13:00.059Z,20.00
2022-10-11T06:15:26.843Z,26.33
2022-10-11T06:17:53.192Z,15.80
2022-10-11T06:20:19.737Z,24.43
2022-10-11T06:22:46.366Z,23.43
2022-10-11T06:25:12.974Z,16.90
2022-10-11T06:27:39.293Z,22.27
2022-10-11T06:30:07.309Z,22.87
2022-10-11T06:32:34.006Z,26.57
2022-10-11T06:35:00.342Z,22.20
2022-10-11T06:37:26.706Z,14.77
2022-10-11T06:39:53.092Z,27.53
2022-10-11T06:42:19.451Z,25.90
2022-10-11T06:44:45.781Z,17.93
2022-10-11T06:47:12.153Z,23.70
2022-10-11T06:49:38.504Z,23.53
2022-10-11T06:52:05.044Z,20.23
2022-10-11T06:54:31.395Z,31.03
2022-10-11T06:56:58.329Z,51.60
2022-10-11T06:59:24.683Z,31.67
2022-10-11T07:01:51.057Z,19.03
2022-10-11T07:04:17.347Z,17.60
2022-10-11T07:06:43.656Z,24.83
2022-10-11T07:09:09.996Z,20.30
2022-10-11T07:11:36.346Z,23.80
2022-10-11T07:14:07.553Z,21.47
2022-10-11T07:16:36.014Z,18.53
2022-10-11T07:19:04.986Z,28.30
2022-10-11T07:21:33.594Z,27.67
2022-10-11T07:24:03.355Z,24.67
2022-10-11T07:26:35.231Z,27.50
2022-10-11T07:29:03.429Z,38.63
2022-10-11T07:31:30.572Z,26.97
2022-10-11T07:33:56.973Z,26.73
2022-10-11T07:36:23.375Z,26.50
2022-10-11T07:38:50.357Z,29.43
2022-10-11T07:41:16.918Z,19.07
2022-10-11T07:43:43.763Z,34.27
2022-10-11T07:46:11.172Z,24.33
2022-10-11T07:48:38.849Z,15.37
2022-10-11T07:51:11.178Z,14.27
2022-10-11T07:53:48.266Z,20.53
2022-10-11T07:56:17.392Z,15.57
2022-10-11T07:58:44.373Z,18.20
2022-10-11T08:01:11.308Z,22.77
2022-10-11T08:03:38.569Z,27.42
2022-10-11T08:06:09.007Z,23.55
2022-10-11T08:08:36.647Z,12.48
2022-10-11T08:11:03.635Z,14.05
2022-10-11T08:13:30.063Z,19.65
2022-10-11T08:15:56.451Z,16.67
2022-10-11T08:18:23.225Z,12.70
2022-10-11T08:20:49.705Z,17.70
2022-10-11T08:23:17.659Z,15.25
2022-10-11T08:25:45.925Z,27.10
2022-10-11T08:28:17.085Z,18.55
2022-10-11T08:30:51.465Z,23.98
2022-10-11T08:33:19.026Z,20.42
2022-10-11T08:35:45.918Z,16.17
2022-10-11T08:38:12.685Z,11.20
2022-10-11T08:40:55.648Z,25.23
2022-10-11T08:43:44.815Z,12.73
2022-10-11T08:46:13.099Z,13.88
2022-10-11T08:48:46.067Z,17.42
2022-10-11T08:51:27.504Z,15.88
2022-10-11T08:54:01.353Z,18.52
2022-10-11T08:56:32.233Z,20.55
2022-10-11T08:59:20.968Z,17.63
2022-10-11T09:01:53.039Z,13.23
2022-10-11T09:04:19.522Z,14.02
2022-10-11T09:07:24.216Z,25.58
2022-10-11T09:10:08.875Z,45.38
2022-10-11T09:13:09.978Z,9.48
2022-10-11T09:16:09.158Z,21.48
2022-10-11T09:19:13.128Z,16.73
2022-10-11T09:22:08.307Z,14.02
2022-10-11T09:24:47.297Z,14.60
2022-10-11T09:27:50.423Z,27.50
2022-10-11T09:30:19.906Z,19.50
2022-10-11T09:33:11.411Z,15.10
2022-10-11T09:35:44.200Z,20.98
2022-10-11T09:38:40.640Z,23.85
2022-10-11T09:41:17.627Z,13.57
2022-10-11T09:43:49.369Z,12.75
2022-10-11T09:46:22.052Z,17.85
2022-10-11T09:48:49.730Z,22.38
2022-10-11T09:51:22.040Z,9.45
2022-10-11T09:54:01.447Z,14.23
2022-10-11T09:56:30.734Z,19.83
2022-10-11T09:59:35.659Z,14.60
2022-10-11T10:02:14.313Z,17.65
2022-10-11T10:04:57.211Z,15.25
2022-10-11T10:07:24.090Z,16.83
2022-10-11T10:09:50.774Z,16.00
2022-10-11T10:12:22.404Z,14.15
2022-10-11T10:15:18.601Z,13.27
2022-10-11T10:17:50.044Z,15.73
2022-10-11T10:20:32.255Z,15.68
2022-10-11T10:23:07.304Z,23.73
2022-10-11T10:25:43.248Z,16.50
2022-10-11T10:28:25.084Z,17.67
2022-10-11T10:30:57.880Z,22.70
2022-10-11T10:33:29.610Z,17.48
2022-10-11T10:36:05.460Z,21.20
2022-10-11T10:38:40.651Z,18.35
2022-10-11T10:41:12.559Z,19.15
2022-10-11T10:43:41.787Z,22.02
2022-10-11T10:46:11.481Z,15.10
2022-10-11T10:49:52.411Z,16.42
2022-10-11T10:52:34.378Z,10.43
2022-10-11T10:55:26.079Z,10.48
2022-10-11T10:58:45.598Z,11.70
2022-10-11T11:01:23.727Z,14.60
2022-10-11T11:04:00.154Z,14.95
2022-10-11T11:06:47.738Z,15.52
2022-10-11T11:09:41.855Z,16.20
2022-10-11T11:12:23.433Z,13.13
2022-10-11T11:15:03.106Z,10.73
2022-10-11T11:17:36.867Z,19.48
2022-10-11T11:20:27.200Z,16.67
2022-10-11T11:23:27.251Z,8.65
2022-10-11T11:26:07.470Z,8.90
2022-10-11T11:28:42.350Z,4.57
2022-10-11T11:31:56.775Z,9.82
2022-10-11T11:34:33.872Z,9.15
2022-10-11T11:37:04.113Z,7.55
2022-10-11T11:39:36.446Z,5.78
2022-10-11T11:42:12.013Z,11.80
2022-10-11T11:44:42.467Z,16.65
2022-10-11T11:47:34.051Z,13.60
2022-10-11T11:50:22.330Z,10.18
2022-10-11T11:52:56.086Z,10.82
2022-10-11T11:55:37.077Z,8.55
2022-10-11T11:58:32.615Z,12.35
2022-10-11T12:01:05.171Z,12.02
2022-10-11T12:03:41.629Z,7.63
2022-10-11T12:06:14.258Z,6.95
2022-10-11T12:08:46.735Z,7.55
2022-10-11T12:11:27.248Z,11.02
2022-10-11T12:13:57.453Z,9.82
2022-10-11T12:16:23.816Z,8.05
2022-10-11T12:18:59.285Z,7.75
2022-10-11T12:21:35.450Z,11.27
2022-10-11T12:24:12.577Z,10.38
2022-10-11T12:26:47.117Z,7.07
2022-10-11T12:29:27.442Z,8.00
2022-10-11T12:32:00.821Z,11.10
2022-10-11T12:34:37.120Z,12.32
2022-10-11T12:37:19.567Z,5.32
2022-10-11T12:39:56.689Z,7.13
2022-10-11T12:42:25.245Z,5.57
2022-10-11T12:45:13.598Z,6.63
2022-10-11T12:48:17.847Z,2.53
2022-10-11T12:51:10.512Z,9.43
2022-10-11T12:54:24.896Z,6.95
2022-10-11T12:57:12.069Z,10.45
2022-10-11T12:59:43.799Z,10.75
2022-10-11T13:02:29.176Z,7.55
2022-10-11T13:05:18.204Z,5.80
2022-10-11T13:07:45.188Z,6.90
2022-10-11T13:10:15.916Z,5.18
2022-10-11T13:12:46.577Z,8.70
2022-10-11T13:15:17.274Z,7.40
2022-10-11T13:17:44.083Z,8.02
2022-10-11T13:20:19.587Z,6.68
2022-10-11T13:22:50.164Z,5.60
2022-10-11T13:25:23.409Z,5.25
2022-10-11T13:27:52.587Z,3.88
2022-10-11T13:30:34.327Z,6.78
2022-10-11T13:33:06.012Z,8.35
2022-10-11T13:35:35.623Z,7.50
2022-10-11T13:38:03.604Z,5.20
2022-10-11T13:40:31.042Z,6.03
2022-10-11T13:42:58.192Z,7.07
2022-10-11T13:45:28.002Z,8.50
2022-10-11T13:47:55.068Z,7.55
2022-10-11T13:50:32.364Z,7.38
2022-10-11T13:53:23.134Z,7.82
2022-10-11T13:55:56.054Z,8.07
2022-10-11T13:58:40.333Z,12.32
2022-10-11T14:01:18.584Z,7.88
2022-10-11T14:03:58.909Z,8.82
2022-10-11T14:06:56.774Z,5.72
2022-10-11T14:09:27.481Z,10.10
2022-10-11T14:11:54.780Z,13.35
2022-10-11T14:14:33.359Z,6.18
2022-10-11T14:17:32.461Z,11.30
2022-10-11T14:20:11.680Z,6.55
2022-10-11T14:22:38.631Z,8.30
2022-10-11T14:25:05.333Z,5.88
2022-10-11T14:27:31.747Z,12.60
2022-10-11T14:30:25.153Z,11.23
2022-10-11T14:32:47.732Z,5.97
2022-10-11T14:35:17.297Z,6.72
2022-10-11T14:37:44.111Z,6.93
2022-10-11T14:40:19.894Z,8.73
2022-10-11T14:42:46.572Z,11.25
2022-10-11T14:45:12.996Z,5.88
2022-10-11T14:47:42.981Z,11.77
2022-10-11T14:50:42.668Z,14.10
2022-10-11T14:53:11.026Z,14.52
2022-10-11T14:55:39.494Z,6.13
2022-10-11T14:58:07.672Z,9.65
2022-10-11T15:00:35.621Z,9.43
2022-10-11T15:03:02.110Z,4.68
2022-10-11T15:05:33.926Z,6.70
2022-10-11T15:08:01.545Z,13.43
2022-10-11T15:10:33.626Z,8.70
2022-10-11T15:13:00.438Z,11.82
2022-10-11T15:15:30.327Z,11.05
2022-10-11T15:17:59.049Z,14.40
2022-10-11T15:20:31.519Z,13.50
2022-10-11T15:23:00.078Z,12.43
2022-10-11T15:25:29.003Z,18.55
2022-10-11T15:27:55.786Z,9.70
2022-10-11T15:30:26.564Z,9.25
2022-10-11T15:32:53.443Z,5.13
2022-10-11T15:35:21.316Z,8.07
2022-10-11T15:37:47.662Z,12.35
2022-10-11T15:40:32.037Z,9.77
2022-10-11T15:42:58.375Z,8.90
2022-10-11T15:45:24.974Z,5.07
2022-10-11T15:47:51.703Z,7.53
2022-10-11T15:50:37.374Z,7.82
2022-10-11T15:53:07.852Z,13.70
2022-10-11T15:55:37.826Z,11.05
2022-10-11T15:58:04.433Z,10.95
2022-10-11T16:00:31.222Z,6.68
2022-10-11T16:02:59.282Z,15.88
2022-10-11T16:05:27.587Z,17.00
2022-10-11T16:07:54.601Z,13.32
2022-10-11T16:10:21.195Z,32.03
2022-10-11T16:12:47.657Z,44.35
2022-10-11T16:15:14.421Z,74.70
2022-10-11T16:17:40.769Z,18.10
2022-10-11T16:20:07.597Z,25.33
2022-10-11T16:22:35.025Z,23.20
2022-10-11T16:25:02.515Z,70.75
2022-10-11T16:27:28.963Z,21.30
2022-10-11T16:29:55.608Z,13.52
2022-10-11T16:32:22.841Z,12.80
2022-10-11T16:34:49.263Z,10.95
2022-10-11T16:37:16.399Z,22.13
2022-10-11T16:39:43.043Z,19.17
2022-10-11T16:42:09.416Z,120.10
2022-10-11T16:44:38.461Z,137.10
2022-10-11T16:47:06.125Z,22.75
2022-10-11T16:49:33.246Z,20.23
2022-10-11T16:52:00.685Z,14.38
2022-10-11T16:54:27.554Z,15.10
2022-10-11T16:56:53.967Z,89.63
2022-10-11T16:59:20.736Z,127.80
2022-10-11T17:01:47.174Z,22.17
2022-10-11T17:04:14.304Z,18.70
2022-10-11T17:06:41.095Z,27.05
2022-10-11T17:09:07.733Z,39.55
2022-10-11T17:11:37.172Z,35.85
2022-10-11T17:14:05.797Z,105.30
2022-10-11T17:16:32.179Z,276.55
2022-10-11T17:18:58.516Z,321.80
2022-10-11T17:21:25.153Z,163.43
2022-10-11T17:23:51.562Z,84.30
2022-10-11T17:26:22.098Z,54.22
2022-10-11T17:28:48.958Z,25.40
2022-10-11T17:31:15.531Z,15.77
2022-10-11T17:33:41.929Z,14.75
2022-10-11T17:36:20.575Z,15.30
2022-10-11T17:38:48.231Z,17.10
2022-10-11T17:41:15.019Z,15.45
2022-10-11T17:43:41.490Z,26.45
2022-10-11T17:46:08.973Z,19.77
2022-10-11T17:48:36.756Z,21.48
2022-10-11T17:51:11.353Z,13.00
2022-10-11T17:53:37.895Z,17.77
2022-10-11T17:56:09.003Z,17.13
2022-10-11T17:58:35.416Z,19.30
2022-10-11T18:01:06.783Z,14.70
2022-10-11T18:03:33.645Z,22.63
2022-10-11T18:06:04.045Z,18.40
2022-10-11T18:08:30.406Z,21.35
2022-10-11T18:10:56.812Z,15.93
2022-10-11T18:13:23.228Z,23.98
2022-10-11T18:15:53.519Z,19.55
2022-10-11T18:18:20.212Z,18.67
2022-10-11T18:20:50.288Z,28.23
2022-10-11T18:23:18.388Z,21.77
2022-10-11T18:25:45.649Z,22.83
2022-10-11T18:28:12.630Z,19.85
2022-10-11T18:30:43.803Z,20.88
2022-10-11T18:33:11.154Z,17.60
2022-10-11T18:35:37.993Z,27.90
2022-10-11T18:38:05.093Z,46.25
2022-10-11T18:40:32.000Z,32.88
2022-10-11T18:42:58.338Z,27.50
2022-10-11T18:45:24.638Z,32.83
2022-10-11T18:47:51.082Z,30.30
2022-10-11T18:50:18.134Z,23.00
2022-10-11T18:52:45.249Z,22.27
2022-10-11T18:55:11.663Z,17.42
2022-10-11T18:57:38.013Z,20.65
2022-10-11T19:00:22.489Z,23.90
2022-10-11T19:02:51.086Z,18.85
2022-10-11T19:05:17.433Z,24.98
2022-10-11T19:07:44.333Z,17.83
2022-10-11T19:10:10.694Z,16.33
2022-10-11T19:12:37.007Z,19.33
2022-10-11T19:15:03.648Z,21.10
2022-10-11T19:17:30.053Z,16.10
2022-10-11T19:19:56.400Z,13.77
2022-10-11T19:22:22.712Z,15.70
2022-10-11T19:24:49.079Z,24.00
2022-10-11T19:27:15.416Z,15.57
2022-10-11T19:29:41.752Z,27.60
2022-10-11T19:32:08.151Z,18.90
2022-10-11T19:34:34.554Z,17.97
2022-10-11T19:37:01.215Z,28.00
2022-10-11T19:39:28.529Z,19.80
2022-10-11T19:41:54.842Z,20.47
2022-10-11T19:44:21.156Z,14.83
2022-10-11T19:46:52.017Z,15.80
2022-10-11T19:49:22.362Z,12.40
2022-10-11T19:51:48.708Z,25.37
2022-10-11T19:54:15.514Z,18.07
2022-10-11T19:56:42.568Z,24.03
2022-10-11T19:59:10.985Z,23.80
2022-10-11T20:01:39.666Z,20.17
2022-10-11T20:04:08.654Z,21.27
2022-10-11T20:06:39.000Z,19.40
2022-10-11T20:11:53.977Z,19.27
2022-10-11T20:14:20.538Z,19.83
2022-10-11T20:16:49.767Z,16.77
2022-10-11T20:19:16.296Z,20.80
2022-10-11T20:21:42.666Z,18.83
2022-10-11T20:24:08.985Z,15.00
2022-10-11T20:26:35.391Z,19.30
2022-10-11T20:29:01.761Z,19.60
2022-10-11T20:31:33.312Z,21.17
2022-10-11T20:34:02.319Z,16.83
2022-10-11T20:36:30.146Z,15.37
2022-10-11T20:38:58.019Z,13.90
2022-10-11T20:41:27.467Z,15.60
2022-10-11T20:43:56.611Z,15.20
2022-10-11T20:46:25.437Z,20.40
2022-10-11T20:48:58.910Z,15.13
2022-10-11T20:51:28.769Z,14.30
2022-10-11T20:53:56.348Z,15.40
2022-10-11T20:56:23.130Z,19.43
2022-10-11T20:58:54.485Z,14.03
2022-10-11T21:01:24.044Z,10.83
2022-10-11T21:03:50.438Z,14.23
2022-10-11T21:06:16.988Z,15.53
2022-10-11T21:08:44.124Z,14.63
2022-10-11T21:11:10.930Z,13.73
2022-10-11T21:13:38.006Z,14.57
2022-10-11T21:16:11.333Z,18.87
2022-10-11T21:18:38.067Z,22.53
2022-10-11T21:21:07.822Z,24.70
2022-10-11T21:23:34.701Z,21.83
2022-10-11T21:26:06.934Z,14.37
2022-10-11T21:28:34.019Z,23.70
2022-10-11T21:31:11.431Z,12.27
2022-10-11T21:33:38.940Z,15.00
2022-10-11T21:36:16.757Z,17.43
2022-10-11T21:38:43.428Z,15.10
2022-10-11T21:41:15.723Z,15.17
2022-10-11T21:43:42.153Z,21.47
2022-10-11T21:46:10.861Z,19.53
2022-10-11T21:48:37.303Z,18.40
2022-10-11T21:51:03.780Z,16.83
2022-10-11T21:53:30.135Z,15.10
2022-10-11T21:55:57.916Z,10.67
2022-10-11T21:58:24.313Z,11.43
2022-10-11T22:00:50.675Z,22.70
2022-10-11T22:03:16.989Z,8.00
2022-10-11T22:05:47.431Z,12.80
2022-10-11T22:08:14.842Z,12.27
2022-10-11T22:10:51.560Z,14.10
2022-10-11T22:13:17.918Z,10.10
2022-10-11T22:15:44.246Z,12.10
2022-10-11T22:18:10.658Z,13.10
2022-10-11T22:20:36.981Z,11.43
2022-10-11T22:23:03.519Z,12.43
2022-10-11T22:25:30.595Z,17.30
2022-10-11T22:27:56.945Z,13.30
2022-10-11T22:30:23.286Z,17.13
2022-10-11T22:32:51.065Z,10.37
2022-10-11T22:35:17.459Z,12.13
2022-10-11T22:37:43.950Z,20.83
2022-10-11T22:40:10.473Z,12.30
2022-10-11T22:42:36.971Z,17.60
2022-10-11T22:45:04.057Z,13.13
2022-10-11T22:47:30.464Z,12.03
2022-10-11T22:49:56.802Z,18.10
2022-10-11T22:52:23.143Z,7.20
2022-10-11T22:54:49.484Z,15.13
2022-10-11T22:57:15.792Z,13.30
2022-10-11T22:59:42.136Z,14.30
2022-10-11T23:02:08.656Z,13.90
2022-10-11T23:04:35.008Z,9.40
2022-10-11T23:07:04.987Z,11.03
2022-10-11T23:09:31.741Z,12.80
2022-10-11T23:11:59.114Z,11.53
2022-10-11T23:14:25.487Z,13.90
2022-10-11T23:16:52.022Z,19.87
2022-10-11T23:19:18.563Z,16.10
2022-10-11T23:21:44.922Z,14.77
2022-10-11T23:24:11.303Z,15.53
2022-10-11T23:26:38.189Z,18.60
2022-10-11T23:29:04.535Z,28.03
2022-10-11T23:31:30.927Z,13.17
2022-10-11T23:33:57.527Z,13.57
2022-10-11T23:36:25.850Z,12.90
2022-10-11T23:38:54.914Z,9.27
2022-10-11T23:41:22.813Z,18.80
2022-10-11T23:43:49.239Z,15.17
2022-10-11T23:46:15.732Z,16.93
2022-10-11T23:48:42.135Z,14.80
2022-10-11T23:51:08.554Z,11.53
2022-10-11T23:53:35.648Z,12.50
2022-10-11T23:56:02.327Z,15.07
2022-10-11T23:58:28.754Z,11.67
